Time;durP1;ratioP1;P1;durP2;ratioP2;P2;SDS_P1;SDS_P2;PMS_P1;PMS_P2;Temp;Humidity;BMP_temperature;BMP_pressure;BME280_temperature;BME280_humidity;BME280_pressure;Samples;Min_cycle;Max_cycle;Signal;HPM_P1;HPM_P2
2022/05/31 00:00:01;;;;;;;6.20;2.17;;;;;;;12.30;57.70;99167.63;337751;28;3350;-67
2022/05/31 00:00:14;;;;;;;3.90;1.92;;;;;;;12.29;57.77;99162.47;340662;29;1829;-67
2022/05/31 00:00:26;;;;;;;2.95;1.90;;;;;;;12.30;57.72;99164.16;340231;29;1248;-67
2022/05/31 00:00:39;;;;;;;4.75;1.95;;;;;;;12.30;58.18;99165.00;339419;29;1067;-67
2022/05/31 00:00:56;;;;;;;6.57;2.30;;;;;;;12.28;58.48;99164.22;339650;29;1175;-66
2022/05/31 00:01:08;;;;;;;4.50;2.37;;;;;;;12.27;59.02;99164.31;339549;29;2206;-66
2022/05/31 00:01:20;;;;;;;4.05;2.20;;;;;;;12.27;58.45;99165.13;340282;29;1866;-66
2022/05/31 00:01:33;;;;;;;4.72;2.22;;;;;;;12.26;58.15;99166.06;340721;29;1270;-66
2022/05/31 00:01:47;;;;;;;5.07;2.20;;;;;;;12.27;58.33;99170.34;340693;29;1811;-66
2022/05/31 00:02:02;;;;;;;4.25;2.28;;;;;;;12.27;58.73;99165.13;340078;29;1280;-67
2022/05/31 00:02:23;;;;;;;2.80;2.20;;;;;;;12.27;58.84;99157.31;340348;29;2225;-67
2022/05/31 00:02:35;;;;;;;2.55;2.10;;;;;;;12.26;58.65;99163.47;340903;29;1209;-67
2022/05/31 00:02:48;;;;;;;2.35;2.00;;;;;;;12.26;58.30;99160.84;340778;29;1275;-67
2022/05/31 00:03:02;;;;;;;2.45;2.00;;;;;;;12.25;58.32;99161.75;340821;29;1402;-67
2022/05/31 00:03:14;;;;;;;3.00;2.25;;;;;;;12.24;58.49;99167.91;339922;29;1646;-67
2022/05/31 00:03:26;;;;;;;3.97;2.30;;;;;;;12.24;58.95;99160.09;340518;29;1522;-66
2022/05/31 00:03:38;;;;;;;5.10;2.40;;;;;;;12.24;58.52;99159.25;340295;29;1868;-66
2022/05/31 00:03:50;;;;;;;4.35;2.30;;;;;;;12.22;58.00;99156.72;339925;29;1072;-66
2022/05/31 00:04:02;;;;;;;3.17;2.15;;;;;;;12.23;57.71;99163.59;340750;28;1690;-66
2022/05/31 00:04:15;;;;;;;3.35;2.13;;;;;;;12.23;57.98;99161.00;341144;28;1065;-67
2022/05/31 00:04:28;;;;;;;4.40;2.20;;;;;;;12.23;58.82;99162.75;340494;28;1127;-67
2022/05/31 00:04:40;;;;;;;4.03;2.20;;;;;;;12.22;58.87;99159.31;341182;28;1201;-67
2022/05/31 00:04:52;;;;;;;3.00;2.17;;;;;;;12.22;59.33;99155.88;340876;28;1085;-67
2022/05/31 00:05:05;;;;;;;4.82;2.40;;;;;;;12.20;58.84;99158.53;340925;28;1785;-67
2022/05/31 00:05:17;;;;;;;6.32;2.42;;;;;;;12.19;58.50;99162.91;340874;28;1703;-67
2022/05/31 00:05:29;;;;;;;5.78;2.30;;;;;;;12.22;58.49;99166.28;340504;29;1171;-69
2022/05/31 00:05:41;;;;;;;5.95;2.30;;;;;;;12.21;58.96;99160.22;341152;28;1253;-69
2022/05/31 00:05:53;;;;;;;5.03;2.20;;;;;;;12.21;58.67;99160.22;341316;28;1175;-69
2022/05/31 00:06:05;;;;;;;4.57;2.25;;;;;;;12.19;58.81;99164.66;341075;28;1754;-67
2022/05/31 00:06:17;;;;;;;4.35;2.30;;;;;;;12.21;59.00;99156.78;341191;28;1711;-67
2022/05/31 00:06:30;;;;;;;5.50;2.40;;;;;;;12.21;58.90;99157.63;339790;29;1470;-67
2022/05/31 00:06:42;;;;;;;7.50;2.40;;;;;;;12.21;58.64;99164.59;339393;29;2148;-67
2022/05/31 00:06:55;;;;;;;8.60;2.35;;;;;;;12.20;58.99;99163.75;340387;28;1856;-67
2022/05/31 00:07:07;;;;;;;11.70;2.40;;;;;;;12.21;59.34;99160.22;340619;29;2442;-67
2022/05/31 00:07:19;;;;;;;10.05;2.30;;;;;;;12.22;59.30;99161.09;340697;29;1835;-67
2022/05/31 00:07:31;;;;;;;5.88;2.20;;;;;;;12.23;59.15;99162.75;340190;29;1809;-67
2022/05/31 00:07:43;;;;;;;5.13;2.10;;;;;;;12.23;58.83;99163.59;340826;29;1064;-67
2022/05/31 00:07:55;;;;;;;4.28;2.20;;;;;;;12.25;58.86;99166.13;340581;29;1333;-67
2022/05/31 00:08:07;;;;;;;4.90;2.20;;;;;;;12.24;58.57;99160.09;340194;29;1835;-67
2022/05/31 00:08:19;;;;;;;7.90;2.30;;;;;;;12.24;58.73;99160.09;339637;29;1792;-67
2022/05/31 00:08:32;;;;;;;7.72;2.20;;;;;;;12.23;58.68;99158.38;340592;29;1249;-67
2022/05/31 00:08:45;;;;;;;4.13;2.00;;;;;;;12.23;58.68;99163.59;340880;29;1262;-67
2022/05/31 00:08:57;;;;;;;2.80;2.00;;;;;;;12.23;58.21;99153.16;340687;29;1039;-68
2022/05/31 00:09:09;;;;;;;4.20;2.10;;;;;;;12.24;58.27;99160.09;339911;29;1755;-67
2022/05/31 00:09:21;;;;;;;4.57;2.13;;;;;;;12.24;58.57;99157.47;340954;28;2012;-67
2022/05/31 00:09:34;;;;;;;3.88;2.10;;;;;;;12.22;58.29;99161.91;340131;28;1141;-67
2022/05/31 00:09:46;;;;;;;5.35;2.10;;;;;;;12.24;58.07;99160.09;339594;29;1795;-67
2022/05/31 00:09:59;;;;;;;5.53;2.10;;;;;;;12.24;58.39;99162.69;339671;29;1078;-67
2022/05/31 00:10:13;;;;;;;5.10;2.10;;;;;;;12.24;58.14;99157.47;339811;29;1889;-67
2022/05/31 00:10:26;;;;;;;4.78;2.30;;;;;;;12.24;58.43;99162.69;340017;29;1942;-67
2022/05/31 00:10:38;;;;;;;5.20;2.40;;;;;;;12.25;58.68;99156.53;341109;29;1040;-67
2022/05/31 00:10:50;;;;;;;4.95;2.30;;;;;;;12.24;58.29;99157.47;340611;29;1181;-67
2022/05/31 00:11:03;;;;;;;4.55;2.30;;;;;;;12.26;58.13;99157.41;340491;29;1261;-67
2022/05/31 00:11:15;;;;;;;4.15;2.30;;;;;;;12.26;58.18;99158.25;340315;29;1666;-67
2022/05/31 00:11:27;;;;;;;3.17;2.38;;;;;;;12.27;58.45;99159.94;340546;29;2114;-67
2022/05/31 00:11:41;;;;;;;3.88;2.28;;;;;;;12.25;58.81;99156.53;339886;29;1253;-67
2022/05/31 00:11:54;;;;;;;3.85;2.28;;;;;;;12.26;58.65;99158.25;339381;29;1055;-67
2022/05/31 00:12:08;;;;;;;3.70;2.10;;;;;;;12.25;58.07;99155.72;339769;29;1773;-67
2022/05/31 00:12:20;;;;;;;3.70;2.05;;;;;;;12.25;58.21;99155.72;340901;29;1128;-67
2022/05/31 00:12:32;;;;;;;2.60;2.10;;;;;;;12.25;58.14;99153.94;340603;29;1298;-67
2022/05/31 00:12:45;;;;;;;2.80;2.10;;;;;;;12.26;58.24;99158.25;340405;28;1793;-67
2022/05/31 00:12:57;;;;;;;3.50;2.20;;;;;;;12.27;58.08;99157.31;340740;28;1864;-67
2022/05/31 00:13:10;;;;;;;8.73;2.30;;;;;;;12.27;58.00;99159.94;340652;28;1070;-67
2022/05/31 00:13:22;;;;;;;9.13;2.20;;;;;;;12.26;58.23;99155.66;341156;28;1145;-67
2022/05/31 00:13:34;;;;;;;3.72;2.10;;;;;;;12.28;57.56;99156.41;341048;28;1401;-67
2022/05/31 00:13:46;;;;;;;2.97;2.00;;;;;;;12.29;57.53;99158.09;341211;28;1295;-66
2022/05/31 00:13:58;;;;;;;2.60;1.90;;;;;;;12.29;57.62;99152.88;339986;28;1729;-66
2022/05/31 00:14:12;;;;;;;2.65;1.90;;;;;;;12.28;58.40;99155.59;340941;29;1505;-66
2022/05/31 00:14:25;;;;;;;3.13;2.13;;;;;;;12.28;58.73;99156.41;340741;28;1023;-66
2022/05/31 00:14:39;;;;;;;3.40;2.30;;;;;;;12.28;58.81;99161.63;341561;28;1297;-67
2022/05/31 00:14:51;;;;;;;3.90;2.40;;;;;;;12.27;58.17;99152.09;339752;29;1115;-67
2022/05/31 00:15:04;;;;;;;3.78;2.22;;;;;;;12.27;58.04;99159.94;339376;29;1839;-67
2022/05/31 00:15:18;;;;;;;3.95;2.22;;;;;;;12.28;58.06;99156.41;339826;29;1790;-67
2022/05/31 00:15:30;;;;;;;2.90;2.10;;;;;;;12.29;58.15;99154.66;339538;28;1958;-67
2022/05/31 00:15:42;;;;;;;3.40;1.95;;;;;;;12.30;57.75;99149.38;340307;29;1678;-67
2022/05/31 00:15:54;;;;;;;4.43;2.17;;;;;;;12.29;57.90;99155.47;340764;29;1108;-67
2022/05/31 00:16:06;;;;;;;4.38;2.20;;;;;;;12.30;57.80;99159.78;340487;29;1728;-67
2022/05/31 00:16:18;;;;;;;4.82;2.25;;;;;;;12.26;58.49;99158.25;340849;29;1184;-67
2022/05/31 00:16:31;;;;;;;4.93;2.03;;;;;;;12.27;58.44;99154.72;339656;29;1231;-66
2022/05/31 00:16:45;;;;;;;5.68;1.90;;;;;;;12.29;57.90;99152.88;339572;29;1105;-67
2022/05/31 00:17:00;;;;;;;4.90;1.80;;;;;;;12.29;57.64;99158.09;339770;29;1133;-67
2022/05/31 00:17:12;;;;;;;3.72;1.98;;;;;;;12.30;57.84;99148.53;339442;29;1749;-68
2022/05/31 00:17:24;;;;;;;4.30;2.20;;;;;;;12.29;58.19;99152.88;337596;28;3900;-68
2022/05/31 00:17:36;;;;;;;5.10;2.40;;;;;;;12.29;58.43;99152.88;340976;29;1051;-67
2022/05/31 00:17:48;;;;;;;5.50;2.38;;;;;;;12.29;57.72;99152.88;340244;29;1799;-67
2022/05/31 00:18:00;;;;;;;3.90;2.20;;;;;;;12.30;57.78;99154.59;340958;29;1249;-67
2022/05/31 00:18:13;;;;;;;3.67;2.05;;;;;;;12.31;57.84;99153.66;340387;28;1841;-67
2022/05/31 00:18:25;;;;;;;3.92;2.00;;;;;;;12.31;57.33;99156.25;341153;28;1985;-67
2022/05/31 00:18:37;;;;;;;3.92;1.80;;;;;;;12.31;57.44;99153.66;341116;28;1047;-67
2022/05/31 00:18:49;;;;;;;4.03;1.95;;;;;;;12.33;57.20;99158.78;339443;28;2027;-67
2022/05/31 00:19:01;;;;;;;3.30;2.00;;;;;;;12.31;57.30;99151.03;340472;29;1104;-67
2022/05/31 00:19:17;;;;;;;2.10;1.90;;;;;;;12.32;56.98;99152.75;340044;28;1772;-66
2022/05/31 00:19:29;;;;;;;2.47;1.85;;;;;;;12.33;57.32;99159.63;338483;29;3119;-67
2022/05/31 00:19:41;;;;;;;2.55;1.85;;;;;;;12.33;56.74;99154.41;341013;29;1071;-66
2022/05/31 00:19:54;;;;;;;2.72;2.00;;;;;;;12.33;57.17;99153.59;340007;29;1584;-66
2022/05/31 00:20:07;;;;;;;2.80;2.03;;;;;;;12.32;57.91;99157.13;340356;29;2191;-67
2022/05/31 00:20:19;;;;;;;2.67;2.10;;;;;;;12.31;57.03;99150.22;340465;29;1759;-67
2022/05/31 00:20:31;;;;;;;3.63;2.10;;;;;;;12.31;57.16;99156.25;340075;29;1339;-67
2022/05/31 00:20:44;;;;;;;4.15;2.08;;;;;;;12.32;57.07;99157.97;339569;29;1041;-68
2022/05/31 00:20:56;;;;;;;3.72;2.00;;;;;;;12.30;57.33;99154.59;339568;29;1053;-68
2022/05/31 00:21:10;;;;;;;4.20;2.10;;;;;;;12.30;57.45;99159.78;339367;29;1735;-70
2022/05/31 00:21:47;;;;;;;4.00;2.05;;;;;;;12.29;57.44;99152.88;339577;29;1905;-70
2022/05/31 00:22:03;;;;;;;4.88;2.00;;;;;;;12.26;57.94;99154.81;338152;29;1904;-67
2022/05/31 00:22:20;;;;;;;3.55;2.03;;;;;;;12.26;58.00;99158.25;339658;29;1105;-67
2022/05/31 00:22:35;;;;;;;2.80;2.00;;;;;;;12.25;57.80;99161.75;340796;28;1887;-67
2022/05/31 00:22:47;;;;;;;3.03;2.03;;;;;;;12.20;57.30;99153.34;340165;28;1772;-68
2022/05/31 00:22:59;;;;;;;2.70;2.10;;;;;;;12.20;57.46;99153.34;339701;29;1456;-67
2022/05/31 00:23:12;;;;;;;2.60;2.10;;;;;;;12.19;57.60;99157.72;339349;29;1143;-67
2022/05/31 00:23:24;;;;;;;4.28;2.20;;;;;;;12.20;57.72;99158.53;340011;29;1074;-68
2022/05/31 00:23:39;;;;;;;5.20;2.17;;;;;;;12.19;57.61;99154.22;339646;29;937;-68
2022/05/31 00:23:51;;;;;;;6.22;2.15;;;;;;;12.19;57.79;99162.06;339850;29;1055;-67
2022/05/31 00:24:05;;;;;;;6.10;2.25;;;;;;;12.19;57.82;99160.31;339811;28;2121;-67
2022/05/31 00:24:18;;;;;;;4.93;2.20;;;;;;;12.20;57.81;99158.53;341217;28;2107;-67
2022/05/31 00:24:31;;;;;;;3.92;2.00;;;;;;;12.22;57.47;99158.47;340208;28;1797;-67
2022/05/31 00:24:43;;;;;;;3.88;2.15;;;;;;;12.22;57.99;99161.91;340785;28;1044;-67
2022/05/31 00:24:55;;;;;;;3.97;2.28;;;;;;;12.22;57.72;99161.91;340596;28;1345;-67
2022/05/31 00:25:08;;;;;;;3.45;2.30;;;;;;;12.22;58.00;99153.28;339595;29;1792;-67
2022/05/31 00:25:20;;;;;;;2.50;2.17;;;;;;;12.20;57.56;99158.53;340590;29;1731;-68
2022/05/31 00:25:32;;;;;;;2.88;2.30;;;;;;;12.20;57.66;99155.94;340295;29;1295;-68
2022/05/31 00:25:45;;;;;;;3.13;2.40;;;;;;;12.19;58.13;99151.63;340853;29;1151;-67
2022/05/31 00:25:57;;;;;;;3.20;2.33;;;;;;;12.18;58.40;99157.78;340751;29;1149;-67
2022/05/31 00:26:09;;;;;;;2.78;2.35;;;;;;;12.18;58.60;99155.16;340384;29;2051;-68
2022/05/31 00:26:21;;;;;;;3.30;2.33;;;;;;;12.17;57.96;99151.72;340410;29;1918;-67
2022/05/31 00:26:37;;;;;;;3.75;2.10;;;;;;;12.18;57.77;99156.00;340641;29;1317;-68
2022/05/31 00:26:49;;;;;;;4.35;1.92;;;;;;;12.20;57.99;99153.34;340987;29;1234;-67
2022/05/31 00:27:04;;;;;;;3.90;2.10;;;;;;;12.19;57.96;99155.09;340761;29;1334;-67
2022/05/31 00:27:19;;;;;;;3.63;2.10;;;;;;;12.19;57.81;99152.50;340930;28;1746;-67
2022/05/31 00:27:31;;;;;;;4.30;2.08;;;;;;;12.20;57.66;99153.34;340904;29;1359;-67
2022/05/31 00:27:44;;;;;;;3.38;1.90;;;;;;;12.21;57.56;99154.16;340541;29;1120;-67
2022/05/31 00:27:56;;;;;;;3.05;2.00;;;;;;;12.21;57.90;99148.97;340997;29;1074;-66
2022/05/31 00:28:08;;;;;;;3.15;2.10;;;;;;;12.21;57.97;99149.78;339906;29;1844;-66
2022/05/31 00:28:20;;;;;;;2.40;2.10;;;;;;;12.19;57.47;99156.84;340746;29;1858;-67
2022/05/31 00:28:32;;;;;;;2.70;2.08;;;;;;;12.18;58.06;99148.19;340650;29;1276;-66
2022/05/31 00:28:44;;;;;;;2.72;2.20;;;;;;;12.18;58.45;99148.19;339487;29;2151;-66
2022/05/31 00:28:56;;;;;;;2.60;2.20;;;;;;;12.18;58.47;99149.97;340636;29;1276;-66
2022/05/31 00:29:09;;;;;;;2.65;2.13;;;;;;;12.15;58.14;99156.16;339770;29;1811;-67
2022/05/31 00:29:21;;;;;;;2.53;2.10;;;;;;;12.14;57.93;99148.41;339572;29;1871;-68
2022/05/31 00:29:33;;;;;;;2.95;2.10;;;;;;;12.15;58.08;99150.09;340458;29;1359;-68
2022/05/31 00:29:47;;;;;;;2.88;2.10;;;;;;;12.14;58.35;99153.63;340862;28;1065;-67
2022/05/31 00:29:59;;;;;;;2.78;1.95;;;;;;;12.13;58.10;99146.72;341080;28;1294;-67
2022/05/31 00:30:13;;;;;;;2.70;1.98;;;;;;;12.14;58.32;99149.25;340060;29;2057;-67
2022/05/31 00:30:25;;;;;;;2.53;1.98;;;;;;;12.15;57.88;99147.47;340030;29;1116;-67
2022/05/31 00:30:37;;;;;;;3.22;1.90;;;;;;;12.16;57.79;99151.78;340668;29;1825;-67
2022/05/31 00:30:51;;;;;;;3.28;2.03;;;;;;;12.14;57.42;99154.47;341044;29;1594;-66
2022/05/31 00:31:03;;;;;;;2.80;2.08;;;;;;;12.15;57.91;99152.69;341105;28;1084;-66
2022/05/31 00:31:15;;;;;;;2.92;2.10;;;;;;;12.15;58.56;99150.09;339651;29;1306;-66
2022/05/31 00:31:27;;;;;;;3.35;2.20;;;;;;;12.14;58.66;99153.63;340306;28;1229;-66
2022/05/31 00:31:42;;;;;;;3.70;2.30;;;;;;;12.12;58.10;99151.09;339481;29;1175;-67
2022/05/31 00:31:54;;;;;;;3.40;2.15;;;;;;;12.12;57.94;99156.28;339747;29;1123;-66
2022/05/31 00:32:09;;;;;;;3.80;2.05;;;;;;;12.13;57.94;99154.53;339394;29;2181;-66
2022/05/31 00:32:27;;;;;;;3.42;2.05;;;;;;;12.11;58.15;99153.75;340180;28;1820;-66
2022/05/31 00:32:49;;;;;;;3.80;2.20;;;;;;;12.10;58.28;99152.09;339710;28;1670;-67
2022/05/31 00:33:02;;;;;;;3.20;2.30;;;;;;;12.11;58.36;99153.75;339470;29;1818;-67
2022/05/31 00:33:14;;;;;;;2.50;1.92;;;;;;;12.11;58.21;99148.53;339982;28;1796;-67
2022/05/31 00:33:26;;;;;;;2.38;1.83;;;;;;;12.12;58.48;99150.25;340844;29;1980;-67
2022/05/31 00:33:38;;;;;;;2.40;1.80;;;;;;;12.13;58.35;99151.91;340177;28;1683;-67
2022/05/31 00:33:50;;;;;;;3.25;2.17;;;;;;;12.12;57.96;99150.25;339723;29;1094;-67
2022/05/31 00:34:04;;;;;;;3.53;2.28;;;;;;;12.10;58.35;99146.88;339821;29;1733;-67
2022/05/31 00:34:17;;;;;;;3.42;2.13;;;;;;;12.07;59.15;99147.00;340589;29;2003;-69
2022/05/31 00:34:33;;;;;;;3.45;2.10;;;;;;;12.07;58.81;99141.78;340885;28;1275;-69
2022/05/31 00:34:47;;;;;;;2.85;2.28;;;;;;;12.07;58.96;99144.38;340887;28;1063;-68
2022/05/31 00:35:07;;;;;;;3.28;2.17;;;;;;;12.06;58.67;99145.31;340616;28;1701;-67
2022/05/31 00:35:33;;;;;;;2.92;2.15;;;;;;;12.04;58.63;99148.00;340792;28;1758;-67
2022/05/31 00:35:53;;;;;;;2.40;2.00;;;;;;;12.07;58.53;99150.44;340924;28;1271;-68
2022/05/31 00:36:05;;;;;;;2.33;2.08;;;;;;;12.05;57.87;99148.84;339897;28;1744;-69
2022/05/31 00:36:17;;;;;;;2.70;2.20;;;;;;;12.05;58.23;99148.84;340170;29;1650;-69
2022/05/31 00:36:33;;;;;;;2.80;2.20;;;;;;;12.04;58.08;99149.75;339540;28;2222;-69
2022/05/31 00:36:47;;;;;;;2.28;1.80;;;;;;;12.02;57.94;99149.00;339803;29;1071;-69
2022/05/31 00:37:00;;;;;;;2.08;1.88;;;;;;;12.01;57.86;99142.06;339815;29;1231;-69
2022/05/31 00:37:13;;;;;;;2.20;2.00;;;;;;;11.98;58.62;99143.91;339871;29;1887;-69
2022/05/31 00:37:25;;;;;;;2.65;2.08;;;;;;;11.98;58.05;99143.91;340113;29;1137;-69
2022/05/31 00:37:37;;;;;;;2.88;2.03;;;;;;;11.96;58.08;99150.13;340553;29;1184;-69
2022/05/31 00:37:51;;;;;;;3.13;2.00;;;;;;;11.97;58.09;99146.56;340937;29;1662;-69
2022/05/31 00:38:04;;;;;;;3.53;2.00;;;;;;;11.96;57.99;99150.94;340933;29;1109;-69
2022/05/31 00:38:17;;;;;;;3.88;2.00;;;;;;;11.97;58.26;99147.44;340654;29;1620;-68
2022/05/31 00:38:29;;;;;;;4.47;1.90;;;;;;;11.97;58.29;99152.66;340740;29;1188;-68
2022/05/31 00:38:41;;;;;;;3.70;1.90;;;;;;;11.96;58.20;99150.13;340881;29;1191;-68
2022/05/31 00:38:54;;;;;;;2.80;2.10;;;;;;;11.95;58.10;99149.28;340193;29;1838;-68
2022/05/31 00:39:07;;;;;;;2.53;2.10;;;;;;;11.94;58.03;99147.56;340386;29;2002;-68
2022/05/31 00:39:19;;;;;;;2.20;1.90;;;;;;;11.94;57.96;99150.19;340578;29;1863;-68
2022/05/31 00:39:31;;;;;;;2.42;2.00;;;;;;;11.91;58.21;99150.34;340474;28;1682;-68
2022/05/31 00:39:43;;;;;;;3.20;2.00;;;;;;;11.91;57.79;99145.13;339502;29;2140;-68
2022/05/31 00:39:55;;;;;;;3.25;2.10;;;;;;;11.89;58.25;99149.56;341066;28;1035;-68
2022/05/31 00:40:08;;;;;;;2.92;1.98;;;;;;;11.88;57.86;99153.03;340487;28;1733;-68
2022/05/31 00:40:22;;;;;;;2.90;2.00;;;;;;;11.86;58.16;99152.25;340911;28;1814;-68
2022/05/31 00:40:36;;;;;;;3.97;2.20;;;;;;;11.83;58.24;99149.81;341017;28;1503;-69
2022/05/31 00:40:48;;;;;;;2.95;2.08;;;;;;;11.79;58.69;99149.09;340953;28;1114;-69
2022/05/31 00:41:23;;;;;;;2.28;1.90;;;;;;;11.77;58.56;99150.94;341295;28;1006;-68
2022/05/31 00:41:35;;;;;;;2.10;1.95;;;;;;;11.76;58.66;99148.38;340029;29;1091;-69
2022/05/31 00:42:07;;;;;;;2.25;2.03;;;;;;;11.76;58.34;99143.19;339583;29;2276;-69
2022/05/31 00:42:22;;;;;;;3.15;2.17;;;;;;;11.69;59.10;99139.16;340830;29;1754;-69
2022/05/31 00:42:53;;;;;;;3.20;2.10;;;;;;;11.68;58.99;99147.91;340943;28;1309;-69
2022/05/31 00:43:10;;;;;;;2.38;2.05;;;;;;;11.68;58.73;99147.91;339232;28;1918;-70
2022/05/31 00:43:25;;;;;;;2.42;2.00;;;;;;;11.67;58.92;99151.41;340173;29;1885;-69
2022/05/31 00:43:37;;;;;;;3.25;2.00;;;;;;;11.66;58.85;99147.13;340140;28;1619;-69
2022/05/31 00:43:59;;;;;;;3.75;2.10;;;;;;;11.57;59.13;99143.19;340252;29;1777;-69
2022/05/31 00:44:16;;;;;;;3.20;2.13;;;;;;;11.52;59.45;99147.72;339846;29;1044;-69
2022/05/31 00:44:29;;;;;;;3.10;2.20;;;;;;;11.49;59.31;99148.72;340575;29;1182;-69
2022/05/31 00:44:41;;;;;;;2.75;2.25;;;;;;;11.50;59.18;99141.75;340130;28;1887;-69
2022/05/31 00:44:53;;;;;;;2.85;2.10;;;;;;;11.49;59.33;99140.91;340729;29;1087;-69
2022/05/31 00:45:05;;;;;;;3.47;2.10;;;;;;;11.51;59.21;99149.50;340542;28;1768;-69
2022/05/31 00:45:18;;;;;;;3.33;2.10;;;;;;;11.53;59.11;99144.19;340628;29;1876;-69
2022/05/31 00:45:48;;;;;;;3.20;2.10;;;;;;;11.53;59.72;99142.47;341012;28;1124;-69
2022/05/31 00:46:03;;;;;;;2.35;2.00;;;;;;;11.53;59.10;99142.47;340704;28;1669;-67
2022/05/31 00:46:15;;;;;;;2.60;2.13;;;;;;;11.53;59.18;99146.81;340118;28;1647;-67
2022/05/31 00:46:50;;;;;;;2.75;2.30;;;;;;;11.44;59.74;99142.88;340545;29;1344;-67
2022/05/31 00:47:21;;;;;;;2.75;2.30;;;;;;;11.42;59.54;99149.91;340969;28;1316;-67
2022/05/31 00:47:33;;;;;;;3.17;2.00;;;;;;;11.45;59.63;99149.78;340351;28;1220;-66
2022/05/31 00:47:46;;;;;;;3.50;1.90;;;;;;;11.45;59.89;99149.78;341124;28;1071;-67
2022/05/31 00:47:59;;;;;;;4.20;1.90;;;;;;;11.47;59.41;99153.16;341106;28;1250;-67
2022/05/31 00:48:17;;;;;;;4.55;1.90;;;;;;;11.41;59.88;99143.00;340074;28;1882;-69
2022/05/31 00:48:41;;;;;;;2.70;2.20;;;;;;;11.43;59.89;99150.72;340664;29;1174;-69
2022/05/31 00:48:57;;;;;;;2.67;2.05;;;;;;;11.44;60.02;99148.06;340253;28;1785;-67
2022/05/31 00:49:12;;;;;;;3.10;2.13;;;;;;;11.42;60.45;99149.06;340077;28;2067;-67
2022/05/31 00:49:31;;;;;;;3.00;2.30;;;;;;;11.42;60.09;99149.06;340078;29;2048;-67
2022/05/31 00:49:48;;;;;;;3.22;2.22;;;;;;;11.38;60.19;99145.75;340717;29;1060;-66
2022/05/31 00:50:06;;;;;;;3.35;2.17;;;;;;;11.41;59.53;99153.44;341102;28;1634;-67
2022/05/31 00:50:29;;;;;;;3.58;2.05;;;;;;;11.44;59.86;99153.28;340884;28;1777;-67
2022/05/31 00:50:50;;;;;;;3.42;2.03;;;;;;;11.42;59.77;99144.69;339880;29;1842;-66
2022/05/31 00:51:09;;;;;;;2.72;1.95;;;;;;;11.45;59.48;99149.78;341184;29;1111;-66
2022/05/31 00:51:23;;;;;;;2.70;2.20;;;;;;;11.45;59.41;99148.91;339975;29;1743;-66
2022/05/31 00:51:46;;;;;;;3.20;2.30;;;;;;;11.44;59.80;99153.28;339962;29;1076;-67
2022/05/31 00:52:02;;;;;;;3.55;2.38;;;;;;;11.38;59.99;99151.78;339306;29;1076;-67
2022/05/31 00:52:21;;;;;;;3.45;2.28;;;;;;;11.35;60.28;99144.13;339675;29;2338;-67
2022/05/31 00:52:46;;;;;;;2.45;2.20;;;;;;;11.37;60.26;99151.88;339402;29;1355;-67
2022/05/31 00:53:02;;;;;;;6.60;2.20;;;;;;;11.38;60.08;99153.53;338529;29;1297;-66
2022/05/31 00:53:21;;;;;;;2.28;2.00;;;;;;;11.39;59.93;99152.66;337571;29;2073;-66
2022/05/31 00:53:40;;;;;;;2.10;1.90;;;;;;;11.40;59.67;99143.91;338116;29;1261;-66
2022/05/31 00:53:56;;;;;;;2.10;1.90;;;;;;;11.41;60.01;99148.22;337318;29;3468;-66
2022/05/31 00:54:14;;;;;;;2.85;2.15;;;;;;;11.40;59.80;99146.50;337900;29;3005;-66
2022/05/31 00:54:32;;;;;;;2.65;2.10;;;;;;;11.40;60.00;99146.50;338265;29;1726;-67
2022/05/31 00:55:22;;;;;;;2.30;2.10;;;;;;;11.37;60.96;99149.28;340513;29;1225;-67
2022/05/31 00:55:50;;;;;;;2.38;2.03;;;;;;;11.41;59.93;99145.63;340825;28;1257;-69
2022/05/31 00:56:07;;;;;;;2.78;1.90;;;;;;;11.42;59.71;99149.91;341003;28;1059;-69
2022/05/31 00:56:28;;;;;;;3.33;2.05;;;;;;;11.42;59.72;99149.91;340752;29;1731;-69
2022/05/31 00:56:42;;;;;;;2.90;2.10;;;;;;;11.40;60.12;99154.31;339698;29;1051;-69
2022/05/31 00:56:55;;;;;;;2.10;1.90;;;;;;;11.42;59.59;99149.91;339268;28;1713;-69
2022/05/31 00:57:07;;;;;;;2.33;1.98;;;;;;;11.44;59.95;99153.28;339630;29;1758;-69
2022/05/31 00:57:20;;;;;;;2.25;2.00;;;;;;;11.45;59.72;99152.38;341287;28;2375;-69
2022/05/31 00:57:35;;;;;;;2.80;2.08;;;;;;;11.44;59.53;99150.66;339996;28;1182;-69
2022/05/31 00:58:21;;;;;;;2.70;2.17;;;;;;;11.41;59.48;99148.22;340298;29;1036;-68
2022/05/31 00:58:40;;;;;;;3.22;1.98;;;;;;;11.39;59.82;99153.47;340512;29;1568;-68
2022/05/31 00:58:58;;;;;;;3.33;2.10;;;;;;;11.38;60.15;99149.19;341125;28;1204;-68
2022/05/31 00:59:23;;;;;;;3.28;2.20;;;;;;;11.34;60.52;99163.22;340166;28;2001;-68
2022/05/31 00:59:45;;;;;;;2.92;2.20;;;;;;;11.35;60.18;99153.69;339563;29;1281;-68
2022/05/31 01:00:03;;;;;;;2.38;2.10;;;;;;;11.36;60.52;99152.75;339826;28;1651;-68
2022/05/31 01:00:16;;;;;;;2.50;2.10;;;;;;;11.37;60.30;99144.06;340712;29;1698;-68
2022/05/31 01:00:28;;;;;;;2.78;2.20;;;;;;;11.33;60.15;99155.53;340827;28;1027;-68
2022/05/31 01:00:41;;;;;;;3.53;2.28;;;;;;;11.29;60.25;99152.19;341025;28;1309;-68
2022/05/31 01:00:55;;;;;;;3.58;2.33;;;;;;;11.26;60.55;99159.28;341136;28;1531;-68
2022/05/31 01:01:12;;;;;;;3.03;2.22;;;;;;;11.28;60.06;99152.25;340470;28;1829;-68
2022/05/31 01:01:24;;;;;;;2.85;2.30;;;;;;;11.24;60.22;99153.31;340879;29;1960;-69
2022/05/31 01:01:39;;;;;;;2.63;2.30;;;;;;;11.25;60.56;99154.97;340665;29;1436;-69
2022/05/31 01:01:56;;;;;;;2.47;2.20;;;;;;;11.27;60.64;99158.34;340164;29;1048;-69
2022/05/31 01:02:09;;;;;;;3.70;2.20;;;;;;;11.28;60.51;99149.66;340117;28;1911;-69
2022/05/31 01:02:21;;;;;;;3.78;2.10;;;;;;;11.30;60.26;99150.44;340951;28;1913;-69
2022/05/31 01:02:33;;;;;;;3.55;1.90;;;;;;;11.30;60.18;99156.47;340769;29;1241;-68
2022/05/31 01:02:46;;;;;;;2.95;1.80;;;;;;;11.32;60.13;99154.66;340407;28;1960;-67
2022/05/31 01:02:59;;;;;;;3.10;1.92;;;;;;;11.35;59.87;99153.69;340057;29;1397;-68
2022/05/31 01:03:15;;;;;;;2.72;2.17;;;;;;;11.37;60.22;99151.88;339267;29;2326;-69
2022/05/31 01:03:30;;;;;;;3.45;2.25;;;;;;;11.37;59.67;99146.66;340087;29;1169;-69
2022/05/31 01:03:44;;;;;;;3.10;2.38;;;;;;;11.30;60.33;99158.25;340023;28;1632;-69
2022/05/31 01:03:59;;;;;;;2.88;2.42;;;;;;;11.28;60.48;99152.25;341219;29;1135;-69
2022/05/31 01:04:11;;;;;;;3.05;2.15;;;;;;;11.30;60.51;99156.47;340056;28;1749;-69
2022/05/31 01:04:31;;;;;;;2.90;2.03;;;;;;;11.32;60.65;99159.03;340902;28;1805;-69
2022/05/31 01:04:53;;;;;;;2.30;2.10;;;;;;;11.34;60.49;99149.38;340683;28;1039;-69
2022/05/31 01:05:07;;;;;;;2.75;2.20;;;;;;;11.27;60.48;99150.56;340431;28;2028;-69
2022/05/31 01:05:20;;;;;;;3.65;2.20;;;;;;;11.21;60.78;99151.69;340561;29;1835;-69
2022/05/31 01:05:32;;;;;;;3.92;2.30;;;;;;;11.19;60.64;99156.94;340867;28;1268;-69
2022/05/31 01:05:45;;;;;;;3.40;2.20;;;;;;;11.22;60.49;99153.38;341210;28;1722;-68
2022/05/31 01:05:57;;;;;;;2.40;2.10;;;;;;;11.23;60.65;99152.47;339663;29;1047;-69
2022/05/31 01:06:12;;;;;;;2.35;1.92;;;;;;;11.24;60.55;99150.69;339809;29;1775;-69
2022/05/31 01:06:24;;;;;;;2.60;2.00;;;;;;;11.25;60.25;99154.97;340407;29;1228;-69
2022/05/31 01:06:37;;;;;;;2.30;2.10;;;;;;;11.26;60.31;99151.47;339797;29;1172;-69
2022/05/31 01:06:49;;;;;;;2.88;2.10;;;;;;;11.27;60.13;99147.94;339684;29;1074;-69
2022/05/31 01:07:02;;;;;;;2.88;2.10;;;;;;;11.30;60.39;99158.25;339644;29;1062;-69
2022/05/31 01:07:15;;;;;;;2.75;2.03;;;;;;;11.26;60.22;99154.09;339834;28;1971;-69
2022/05/31 01:07:27;;;;;;;2.50;2.10;;;;;;;11.23;60.09;99149.00;340552;28;2029;-69
2022/05/31 01:07:40;;;;;;;2.78;2.10;;;;;;;11.24;60.36;99150.69;339732;29;1031;-69
2022/05/31 01:07:52;;;;;;;2.83;2.20;;;;;;;11.24;60.51;99156.75;339561;29;1175;-69
2022/05/31 01:08:05;;;;;;;2.38;2.10;;;;;;;11.22;60.72;99147.31;339525;29;1704;-69
2022/05/31 01:08:17;;;;;;;2.72;2.13;;;;;;;11.22;60.70;99153.38;340628;28;1763;-69
2022/05/31 01:08:29;;;;;;;3.13;2.33;;;;;;;11.25;60.35;99152.38;340266;29;1203;-69
2022/05/31 01:08:45;;;;;;;3.72;2.35;;;;;;;11.24;60.25;99148.09;339515;29;1055;-69
2022/05/31 01:08:58;;;;;;;3.15;2.28;;;;;;;11.24;60.32;99145.50;340856;28;1025;-69
2022/05/31 01:09:10;;;;;;;2.38;2.17;;;;;;;11.23;60.22;99155.06;340145;28;1808;-68
2022/05/31 01:09:22;;;;;;;3.10;2.10;;;;;;;11.23;60.34;99151.59;340766;29;1909;-68
2022/05/31 01:09:35;;;;;;;2.90;1.95;;;;;;;11.24;60.27;99153.31;339503;28;1858;-68
2022/05/31 01:09:47;;;;;;;2.30;2.03;;;;;;;11.18;60.65;99152.66;339888;29;1554;-68
2022/05/31 01:10:00;;;;;;;2.50;2.30;;;;;;;11.16;60.71;99157.06;339714;29;1004;-68